sensor_id;sensor_type;location;lat;lon;timestamp;P1;durP1;ratioP1;P2;durP2;ratioP2
43626;SDS011;29217;52.586;13.442;2023-08-31T00:01:52;6.63;;;4.28;;
43626;SDS011;29217;52.586;13.442;2023-08-31T00:04:18;6.22;;;4.10;;
43626;SDS011;29217;52.586;13.442;2023-08-31T00:06:44;6.75;;;4.28;;
43626;SDS011;29217;52.586;13.442;2023-08-31T00:09:11;4.45;;;3.72;;
43626;SDS011;29217;52.586;13.442;2023-08-31T00:11:37;6.55;;;4.00;;
43626;SDS011;29217;52.586;13.442;2023-08-31T00:14:03;8.20;;;3.85;;
43626;SDS011;29217;52.586;13.442;2023-08-31T00:16:29;5.00;;;3.72;;
43626;SDS011;29217;52.586;13.442;2023-08-31T00:18:58;4.60;;;4.10;;
43626;SDS011;29217;52.586;13.442;2023-08-31T00:21:24;4.63;;;3.65;;
43626;SDS011;29217;52.586;13.442;2023-08-31T00:23:50;4.88;;;4.25;;
43626;SDS011;29217;52.586;13.442;2023-08-31T00:26:15;4.15;;;3.45;;
43626;SDS011;29217;52.586;13.442;2023-08-31T00:28:41;4.80;;;3.88;;
43626;SDS011;29217;52.586;13.442;2023-08-31T00:31:10;4.95;;;4.15;;
43626;SDS011;29217;52.586;13.442;2023-08-31T00:33:39;8.88;;;4.28;;
43626;SDS011;29217;52.586;13.442;2023-08-31T00:36:05;5.13;;;3.88;;
43626;SDS011;29217;52.586;13.442;2023-08-31T00:38:30;4.80;;;3.97;;
43626;SDS011;29217;52.586;13.442;2023-08-31T00:40:56;5.22;;;4.45;;
43626;SDS011;29217;52.586;13.442;2023-08-31T00:43:22;4.45;;;4.05;;
43626;SDS011;29217;52.586;13.442;2023-08-31T00:45:48;5.97;;;4.10;;
43626;SDS011;29217;52.586;13.442;2023-08-31T00:48:16;6.70;;;3.78;;
43626;SDS011;29217;52.586;13.442;2023-08-31T00:50:45;3.85;;;3.45;;
43626;SDS011;29217;52.586;13.442;2023-08-31T00:53:11;4.15;;;3.75;;
43626;SDS011;29217;52.586;13.442;2023-08-31T00:55:38;5.32;;;3.90;;
43626;SDS011;29217;52.586;13.442;2023-08-31T00:58:05;4.10;;;3.55;;
43626;SDS011;29217;52.586;13.442;2023-08-31T01:03:13;4.53;;;3.78;;
43626;SDS011;29217;52.586;13.442;2023-08-31T01:06:02;5.22;;;4.10;;
43626;SDS011;29217;52.586;13.442;2023-08-31T01:13:43;4.55;;;3.85;;
43626;SDS011;29217;52.586;13.442;2023-08-31T01:16:13;6.25;;;4.15;;
43626;SDS011;29217;52.586;13.442;2023-08-31T01:18:41;7.35;;;4.20;;
43626;SDS011;29217;52.586;13.442;2023-08-31T01:21:15;6.03;;;4.28;;
43626;SDS011;29217;52.586;13.442;2023-08-31T01:23:51;7.78;;;4.47;;
43626;SDS011;29217;52.586;13.442;2023-08-31T01:26:21;5.28;;;4.35;;
43626;SDS011;29217;52.586;13.442;2023-08-31T01:28:48;5.53;;;4.07;;
43626;SDS011;29217;52.586;13.442;2023-08-31T01:31:15;5.25;;;4.40;;
43626;SDS011;29217;52.586;13.442;2023-08-31T01:33:41;6.60;;;4.55;;
43626;SDS011;29217;52.586;13.442;2023-08-31T01:36:08;6.10;;;4.38;;
43626;SDS011;29217;52.586;13.442;2023-08-31T01:38:50;5.72;;;4.45;;
43626;SDS011;29217;52.586;13.442;2023-08-31T01:41:19;4.97;;;4.00;;
43626;SDS011;29217;52.586;13.442;2023-08-31T01:43:47;5.78;;;4.20;;
43626;SDS011;29217;52.586;13.442;2023-08-31T01:46:13;10.20;;;3.95;;
43626;SDS011;29217;52.586;13.442;2023-08-31T01:48:40;6.13;;;3.65;;
43626;SDS011;29217;52.586;13.442;2023-08-31T01:51:06;5.00;;;3.85;;
43626;SDS011;29217;52.586;13.442;2023-08-31T01:53:33;5.82;;;4.10;;
43626;SDS011;29217;52.586;13.442;2023-08-31T01:55:59;4.90;;;3.80;;
43626;SDS011;29217;52.586;13.442;2023-08-31T01:58:25;4.88;;;3.65;;
43626;SDS011;29217;52.586;13.442;2023-08-31T02:00:50;4.72;;;3.42;;
43626;SDS011;29217;52.586;13.442;2023-08-31T02:03:16;4.13;;;3.10;;
43626;SDS011;29217;52.586;13.442;2023-08-31T02:05:42;4.05;;;3.15;;
43626;SDS011;29217;52.586;13.442;2023-08-31T02:08:07;3.25;;;2.90;;
43626;SDS011;29217;52.586;13.442;2023-08-31T02:10:33;4.88;;;3.30;;
43626;SDS011;29217;52.586;13.442;2023-08-31T02:12:59;7.30;;;3.42;;
43626;SDS011;29217;52.586;13.442;2023-08-31T02:15:25;4.55;;;3.53;;
43626;SDS011;29217;52.586;13.442;2023-08-31T02:17:50;4.32;;;3.42;;
43626;SDS011;29217;52.586;13.442;2023-08-31T02:20:17;3.90;;;3.28;;
43626;SDS011;29217;52.586;13.442;2023-08-31T02:22:45;4.18;;;3.03;;
43626;SDS011;29217;52.586;13.442;2023-08-31T02:25:11;4.32;;;2.60;;
43626;SDS011;29217;52.586;13.442;2023-08-31T02:27:37;3.53;;;2.80;;
43626;SDS011;29217;52.586;13.442;2023-08-31T02:30:03;2.65;;;2.40;;
43626;SDS011;29217;52.586;13.442;2023-08-31T02:32:30;3.30;;;2.40;;
43626;SDS011;29217;52.586;13.442;2023-08-31T02:34:55;3.67;;;2.30;;
43626;SDS011;29217;52.586;13.442;2023-08-31T02:37:21;3.30;;;2.00;;
43626;SDS011;29217;52.586;13.442;2023-08-31T02:39:47;3.22;;;2.00;;
43626;SDS011;29217;52.586;13.442;2023-08-31T02:42:13;3.40;;;2.65;;
43626;SDS011;29217;52.586;13.442;2023-08-31T02:44:39;2.75;;;2.00;;
43626;SDS011;29217;52.586;13.442;2023-08-31T02:47:05;2.58;;;2.20;;
43626;SDS011;29217;52.586;13.442;2023-08-31T02:49:30;2.53;;;2.10;;
43626;SDS011;29217;52.586;13.442;2023-08-31T02:51:56;3.90;;;2.40;;
43626;SDS011;29217;52.586;13.442;2023-08-31T02:54:22;2.65;;;2.15;;
43626;SDS011;29217;52.586;13.442;2023-08-31T02:56:47;2.72;;;2.30;;
43626;SDS011;29217;52.586;13.442;2023-08-31T02:59:13;2.90;;;2.22;;
43626;SDS011;29217;52.586;13.442;2023-08-31T03:01:39;2.22;;;2.00;;
43626;SDS011;29217;52.586;13.442;2023-08-31T03:04:04;3.03;;;2.28;;
43626;SDS011;29217;52.586;13.442;2023-08-31T03:06:31;2.80;;;2.15;;
43626;SDS011;29217;52.586;13.442;2023-08-31T03:08:57;3.80;;;2.47;;
43626;SDS011;29217;52.586;13.442;2023-08-31T03:11:23;3.22;;;2.47;;
43626;SDS011;29217;52.586;13.442;2023-08-31T03:13:48;2.35;;;2.15;;
43626;SDS011;29217;52.586;13.442;2023-08-31T03:16:14;3.78;;;2.40;;
43626;SDS011;29217;52.586;13.442;2023-08-31T03:18:39;3.63;;;2.30;;
43626;SDS011;29217;52.586;13.442;2023-08-31T03:21:05;3.67;;;2.50;;
43626;SDS011;29217;52.586;13.442;2023-08-31T03:23:31;3.40;;;2.58;;
43626;SDS011;29217;52.586;13.442;2023-08-31T03:25:56;3.63;;;2.70;;
43626;SDS011;29217;52.586;13.442;2023-08-31T03:28:22;5.43;;;2.72;;
43626;SDS011;29217;52.586;13.442;2023-08-31T03:30:54;3.10;;;2.63;;
43626;SDS011;29217;52.586;13.442;2023-08-31T03:33:20;3.08;;;2.50;;
43626;SDS011;29217;52.586;13.442;2023-08-31T03:35:46;3.25;;;2.65;;
43626;SDS011;29217;52.586;13.442;2023-08-31T03:38:11;3.60;;;2.60;;
43626;SDS011;29217;52.586;13.442;2023-08-31T03:40:37;4.53;;;2.35;;
43626;SDS011;29217;52.586;13.442;2023-08-31T03:43:02;3.03;;;2.33;;
43626;SDS011;29217;52.586;13.442;2023-08-31T03:45:28;4.35;;;2.80;;
43626;SDS011;29217;52.586;13.442;2023-08-31T03:47:54;3.63;;;2.50;;
43626;SDS011;29217;52.586;13.442;2023-08-31T03:50:19;5.10;;;2.70;;
43626;SDS011;29217;52.586;13.442;2023-08-31T03:52:45;3.15;;;2.60;;
43626;SDS011;29217;52.586;13.442;2023-08-31T03:55:10;6.10;;;3.00;;
43626;SDS011;29217;52.586;13.442;2023-08-31T03:57:36;4.70;;;2.70;;
43626;SDS011;29217;52.586;13.442;2023-08-31T04:00:02;2.95;;;2.38;;
43626;SDS011;29217;52.586;13.442;2023-08-31T04:02:33;4.75;;;3.00;;
43626;SDS011;29217;52.586;13.442;2023-08-31T04:04:59;3.25;;;2.70;;
43626;SDS011;29217;52.586;13.442;2023-08-31T04:07:25;4.88;;;3.10;;
43626;SDS011;29217;52.586;13.442;2023-08-31T04:09:50;3.42;;;2.90;;
43626;SDS011;29217;52.586;13.442;2023-08-31T04:12:16;3.70;;;3.05;;
43626;SDS011;29217;52.586;13.442;2023-08-31T04:14:42;4.90;;;3.58;;
43626;SDS011;29217;52.586;13.442;2023-08-31T04:17:07;3.80;;;3.03;;
43626;SDS011;29217;52.586;13.442;2023-08-31T04:19:33;4.65;;;3.60;;
43626;SDS011;29217;52.586;13.442;2023-08-31T04:21:59;5.82;;;3.85;;
43626;SDS011;29217;52.586;13.442;2023-08-31T04:24:24;5.55;;;3.72;;
43626;SDS011;29217;52.586;13.442;2023-08-31T04:26:51;6.00;;;4.40;;
43626;SDS011;29217;52.586;13.442;2023-08-31T04:29:17;6.05;;;4.28;;
43626;SDS011;29217;52.586;13.442;2023-08-31T04:31:42;6.75;;;4.35;;
43626;SDS011;29217;52.586;13.442;2023-08-31T04:34:08;7.18;;;4.72;;
43626;SDS011;29217;52.586;13.442;2023-08-31T04:36:34;9.05;;;4.60;;
43626;SDS011;29217;52.586;13.442;2023-08-31T04:38:59;13.23;;;5.07;;
43626;SDS011;29217;52.586;13.442;2023-08-31T04:41:25;8.43;;;5.57;;
43626;SDS011;29217;52.586;13.442;2023-08-31T04:43:50;8.35;;;5.60;;
43626;SDS011;29217;52.586;13.442;2023-08-31T04:46:16;6.53;;;5.05;;
43626;SDS011;29217;52.586;13.442;2023-08-31T04:48:42;9.93;;;6.05;;
43626;SDS011;29217;52.586;13.442;2023-08-31T04:51:09;10.27;;;6.28;;
43626;SDS011;29217;52.586;13.442;2023-08-31T04:53:51;9.70;;;6.15;;
43626;SDS011;29217;52.586;13.442;2023-08-31T04:56:17;10.05;;;6.50;;
43626;SDS011;29217;52.586;13.442;2023-08-31T04:58:42;9.43;;;5.90;;
43626;SDS011;29217;52.586;13.442;2023-08-31T05:01:08;10.85;;;6.88;;
43626;SDS011;29217;52.586;13.442;2023-08-31T05:03:34;10.75;;;6.75;;
43626;SDS011;29217;52.586;13.442;2023-08-31T05:06:00;15.75;;;7.60;;
43626;SDS011;29217;52.586;13.442;2023-08-31T05:08:25;11.50;;;7.55;;
43626;SDS011;29217;52.586;13.442;2023-08-31T05:10:51;13.98;;;8.38;;
43626;SDS011;29217;52.586;13.442;2023-08-31T05:13:16;13.23;;;7.30;;
43626;SDS011;29217;52.586;13.442;2023-08-31T05:15:42;12.52;;;8.02;;
43626;SDS011;29217;52.586;13.442;2023-08-31T05:18:07;15.38;;;8.32;;
43626;SDS011;29217;52.586;13.442;2023-08-31T05:20:33;12.93;;;7.88;;
43626;SDS011;29217;52.586;13.442;2023-08-31T05:22:59;13.10;;;7.93;;
43626;SDS011;29217;52.586;13.442;2023-08-31T05:25:24;12.63;;;7.93;;
43626;SDS011;29217;52.586;13.442;2023-08-31T05:27:50;17.75;;;8.35;;
43626;SDS011;29217;52.586;13.442;2023-08-31T05:30:16;12.73;;;8.30;;
43626;SDS011;29217;52.586;13.442;2023-08-31T05:32:41;14.18;;;7.90;;
43626;SDS011;29217;52.586;13.442;2023-08-31T05:35:07;12.70;;;8.23;;
43626;SDS011;29217;52.586;13.442;2023-08-31T05:37:33;13.57;;;7.78;;
43626;SDS011;29217;52.586;13.442;2023-08-31T05:40:00;16.60;;;8.68;;
43626;SDS011;29217;52.586;13.442;2023-08-31T05:42:26;13.32;;;8.50;;
43626;SDS011;29217;52.586;13.442;2023-08-31T05:44:52;14.10;;;8.85;;
43626;SDS011;29217;52.586;13.442;2023-08-31T05:47:17;12.00;;;8.45;;
43626;SDS011;29217;52.586;13.442;2023-08-31T05:49:43;15.95;;;9.32;;
43626;SDS011;29217;52.586;13.442;2023-08-31T05:52:08;14.13;;;8.32;;
43626;SDS011;29217;52.586;13.442;2023-08-31T05:54:34;17.92;;;9.15;;
43626;SDS011;29217;52.586;13.442;2023-08-31T05:57:01;15.38;;;9.18;;
43626;SDS011;29217;52.586;13.442;2023-08-31T05:59:28;16.73;;;9.02;;
43626;SDS011;29217;52.586;13.442;2023-08-31T06:01:54;16.40;;;9.40;;
43626;SDS011;29217;52.586;13.442;2023-08-31T06:04:19;16.75;;;9.45;;
43626;SDS011;29217;52.586;13.442;2023-08-31T06:06:45;16.35;;;9.43;;
43626;SDS011;29217;52.586;13.442;2023-08-31T06:09:11;14.57;;;9.52;;
43626;SDS011;29217;52.586;13.442;2023-08-31T06:11:37;12.00;;;7.95;;
43626;SDS011;29217;52.586;13.442;2023-08-31T06:14:04;18.27;;;9.40;;
43626;SDS011;29217;52.586;13.442;2023-08-31T06:16:29;16.00;;;9.02;;
43626;SDS011;29217;52.586;13.442;2023-08-31T06:18:55;13.18;;;8.85;;
43626;SDS011;29217;52.586;13.442;2023-08-31T06:21:20;13.52;;;8.98;;
43626;SDS011;29217;52.586;13.442;2023-08-31T06:23:46;13.93;;;8.70;;
43626;SDS011;29217;52.586;13.442;2023-08-31T06:26:12;13.02;;;8.60;;
43626;SDS011;29217;52.586;13.442;2023-08-31T06:28:37;14.02;;;8.70;;
43626;SDS011;29217;52.586;13.442;2023-08-31T06:31:03;13.30;;;8.45;;
43626;SDS011;29217;52.586;13.442;2023-08-31T06:33:29;14.57;;;8.80;;
43626;SDS011;29217;52.586;13.442;2023-08-31T06:35:54;15.25;;;8.20;;
43626;SDS011;29217;52.586;13.442;2023-08-31T06:38:20;14.73;;;8.93;;
43626;SDS011;29217;52.586;13.442;2023-08-31T06:40:46;12.25;;;8.18;;
43626;SDS011;29217;52.586;13.442;2023-08-31T06:43:12;13.25;;;7.57;;
43626;SDS011;29217;52.586;13.442;2023-08-31T06:45:37;14.18;;;8.18;;
43626;SDS011;29217;52.586;13.442;2023-08-31T06:48:03;14.60;;;7.90;;
43626;SDS011;29217;52.586;13.442;2023-08-31T06:50:29;16.45;;;8.25;;
43626;SDS011;29217;52.586;13.442;2023-08-31T06:52:55;13.40;;;8.82;;
43626;SDS011;29217;52.586;13.442;2023-08-31T06:55:20;13.43;;;8.55;;
43626;SDS011;29217;52.586;13.442;2023-08-31T06:57:46;12.30;;;8.38;;
43626;SDS011;29217;52.586;13.442;2023-08-31T07:00:12;12.98;;;8.50;;
43626;SDS011;29217;52.586;13.442;2023-08-31T07:02:40;14.60;;;8.60;;
43626;SDS011;29217;52.586;13.442;2023-08-31T07:05:07;10.43;;;7.47;;
43626;SDS011;29217;52.586;13.442;2023-08-31T07:07:33;12.18;;;8.20;;
43626;SDS011;29217;52.586;13.442;2023-08-31T07:09:59;9.55;;;7.07;;
43626;SDS011;29217;52.586;13.442;2023-08-31T07:12:24;11.77;;;6.95;;
43626;SDS011;29217;52.586;13.442;2023-08-31T07:14:50;10.15;;;7.10;;
43626;SDS011;29217;52.586;13.442;2023-08-31T07:17:19;10.35;;;7.40;;
43626;SDS011;29217;52.586;13.442;2023-08-31T07:19:45;9.95;;;7.75;;
43626;SDS011;29217;52.586;13.442;2023-08-31T07:22:10;10.05;;;6.57;;
43626;SDS011;29217;52.586;13.442;2023-08-31T07:24:37;10.93;;;6.40;;
43626;SDS011;29217;52.586;13.442;2023-08-31T07:27:02;11.48;;;6.30;;
43626;SDS011;29217;52.586;13.442;2023-08-31T07:29:29;7.75;;;5.25;;
43626;SDS011;29217;52.586;13.442;2023-08-31T07:31:55;8.63;;;5.20;;
43626;SDS011;29217;52.586;13.442;2023-08-31T07:34:21;12.23;;;5.47;;
43626;SDS011;29217;52.586;13.442;2023-08-31T07:36:47;8.90;;;5.20;;
43626;SDS011;29217;52.586;13.442;2023-08-31T07:39:13;8.75;;;5.15;;
43626;SDS011;29217;52.586;13.442;2023-08-31T07:41:38;9.07;;;5.22;;
43626;SDS011;29217;52.586;13.442;2023-08-31T07:44:05;7.03;;;5.10;;
43626;SDS011;29217;52.586;13.442;2023-08-31T07:46:31;9.50;;;4.90;;
43626;SDS011;29217;52.586;13.442;2023-08-31T07:48:56;7.65;;;4.93;;
43626;SDS011;29217;52.586;13.442;2023-08-31T07:51:22;11.75;;;4.78;;
43626;SDS011;29217;52.586;13.442;2023-08-31T07:53:49;7.28;;;4.40;;
43626;SDS011;29217;52.586;13.442;2023-08-31T07:56:15;9.43;;;4.50;;
43626;SDS011;29217;52.586;13.442;2023-08-31T07:58:41;7.18;;;4.80;;
43626;SDS011;29217;52.586;13.442;2023-08-31T08:01:06;7.70;;;4.97;;
43626;SDS011;29217;52.586;13.442;2023-08-31T08:03:32;8.32;;;4.45;;
43626;SDS011;29217;52.586;13.442;2023-08-31T08:05:57;10.05;;;4.80;;
43626;SDS011;29217;52.586;13.442;2023-08-31T08:08:23;11.25;;;4.57;;
43626;SDS011;29217;52.586;13.442;2023-08-31T08:10:52;8.18;;;4.88;;
43626;SDS011;29217;52.586;13.442;2023-08-31T08:13:18;9.27;;;4.22;;
43626;SDS011;29217;52.586;13.442;2023-08-31T08:15:44;6.70;;;2.90;;
43626;SDS011;29217;52.586;13.442;2023-08-31T08:18:11;5.32;;;3.17;;
43626;SDS011;29217;52.586;13.442;2023-08-31T08:20:36;5.70;;;2.83;;
43626;SDS011;29217;52.586;13.442;2023-08-31T08:23:02;4.05;;;2.50;;
43626;SDS011;29217;52.586;13.442;2023-08-31T08:25:28;4.90;;;2.50;;
43626;SDS011;29217;52.586;13.442;2023-08-31T08:27:53;8.32;;;2.53;;
43626;SDS011;29217;52.586;13.442;2023-08-31T08:30:19;7.38;;;2.45;;
43626;SDS011;29217;52.586;13.442;2023-08-31T08:32:44;6.55;;;2.67;;
43626;SDS011;29217;52.586;13.442;2023-08-31T08:35:10;8.80;;;3.65;;
43626;SDS011;29217;52.586;13.442;2023-08-31T08:37:35;4.95;;;2.25;;
43626;SDS011;29217;52.586;13.442;2023-08-31T08:40:01;6.57;;;2.10;;
43626;SDS011;29217;52.586;13.442;2023-08-31T08:42:29;3.35;;;2.22;;
43626;SDS011;29217;52.586;13.442;2023-08-31T08:44:57;3.75;;;2.17;;
43626;SDS011;29217;52.586;13.442;2023-08-31T08:47:23;10.82;;;2.70;;
43626;SDS011;29217;52.586;13.442;2023-08-31T08:49:50;7.30;;;2.20;;
43626;SDS011;29217;52.586;13.442;2023-08-31T08:52:17;4.95;;;2.00;;
43626;SDS011;29217;52.586;13.442;2023-08-31T08:54:43;8.77;;;1.88;;
43626;SDS011;29217;52.586;13.442;2023-08-31T08:57:09;4.78;;;1.85;;
43626;SDS011;29217;52.586;13.442;2023-08-31T08:59:35;2.80;;;1.60;;
43626;SDS011;29217;52.586;13.442;2023-08-31T09:02:00;4.60;;;1.80;;
43626;SDS011;29217;52.586;13.442;2023-08-31T09:04:26;5.90;;;1.50;;
43626;SDS011;29217;52.586;13.442;2023-08-31T09:06:55;1.95;;;1.42;;
43626;SDS011;29217;52.586;13.442;2023-08-31T09:09:20;4.40;;;1.50;;
43626;SDS011;29217;52.586;13.442;2023-08-31T09:11:46;8.32;;;1.77;;
43626;SDS011;29217;52.586;13.442;2023-08-31T09:14:15;3.00;;;1.52;;
43626;SDS011;29217;52.586;13.442;2023-08-31T09:16:45;5.93;;;1.45;;
43626;SDS011;29217;52.586;13.442;2023-08-31T09:19:22;3.13;;;1.38;;
43626;SDS011;29217;52.586;13.442;2023-08-31T09:21:49;4.07;;;1.33;;
43626;SDS011;29217;52.586;13.442;2023-08-31T09:24:20;3.08;;;1.17;;
43626;SDS011;29217;52.586;13.442;2023-08-31T09:26:52;3.63;;;1.42;;
43626;SDS011;29217;52.586;13.442;2023-08-31T09:29:20;2.63;;;1.20;;
43626;SDS011;29217;52.586;13.442;2023-08-31T09:31:45;2.90;;;1.30;;
43626;SDS011;29217;52.586;13.442;2023-08-31T09:34:15;5.43;;;1.50;;
43626;SDS011;29217;52.586;13.442;2023-08-31T09:36:41;5.28;;;1.50;;
43626;SDS011;29217;52.586;13.442;2023-08-31T09:39:08;3.92;;;1.30;;
43626;SDS011;29217;52.586;13.442;2023-08-31T09:41:35;4.55;;;1.35;;
43626;SDS011;29217;52.586;13.442;2023-08-31T09:44:17;2.97;;;1.35;;
43626;SDS011;29217;52.586;13.442;2023-08-31T09:46:44;3.20;;;1.38;;
43626;SDS011;29217;52.586;13.442;2023-08-31T09:49:13;3.63;;;1.40;;
43626;SDS011;29217;52.586;13.442;2023-08-31T09:51:41;4.03;;;1.40;;
43626;SDS011;29217;52.586;13.442;2023-08-31T09:54:13;6.60;;;1.83;;
43626;SDS011;29217;52.586;13.442;2023-08-31T09:56:41;4.40;;;2.55;;
43626;SDS011;29217;52.586;13.442;2023-08-31T09:59:07;6.88;;;1.98;;
43626;SDS011;29217;52.586;13.442;2023-08-31T10:01:34;2.50;;;1.42;;
43626;SDS011;29217;52.586;13.442;2023-08-31T10:04:00;6.07;;;1.70;;
43626;SDS011;29217;52.586;13.442;2023-08-31T10:06:26;2.85;;;1.70;;
43626;SDS011;29217;52.586;13.442;2023-08-31T10:08:53;4.60;;;1.52;;
43626;SDS011;29217;52.586;13.442;2023-08-31T10:11:19;3.53;;;1.70;;
43626;SDS011;29217;52.586;13.442;2023-08-31T10:13:47;4.78;;;1.77;;
43626;SDS011;29217;52.586;13.442;2023-08-31T10:16:14;5.22;;;1.90;;
43626;SDS011;29217;52.586;13.442;2023-08-31T10:18:40;4.35;;;1.30;;
43626;SDS011;29217;52.586;13.442;2023-08-31T10:21:07;5.88;;;1.55;;
43626;SDS011;29217;52.586;13.442;2023-08-31T10:23:33;3.40;;;1.55;;
43626;SDS011;29217;52.586;13.442;2023-08-31T10:26:00;2.55;;;1.00;;
43626;SDS011;29217;52.586;13.442;2023-08-31T10:28:28;1.50;;;1.10;;
43626;SDS011;29217;52.586;13.442;2023-08-31T10:33:28;3.60;;;1.52;;
43626;SDS011;29217;52.586;13.442;2023-08-31T10:35:56;3.95;;;1.25;;
43626;SDS011;29217;52.586;13.442;2023-08-31T10:38:29;2.63;;;1.00;;
43626;SDS011;29217;52.586;13.442;2023-08-31T10:41:03;3.10;;;1.45;;
43626;SDS011;29217;52.586;13.442;2023-08-31T10:43:53;2.47;;;1.30;;
43626;SDS011;29217;52.586;13.442;2023-08-31T10:46:31;3.42;;;1.35;;
43626;SDS011;29217;52.586;13.442;2023-08-31T10:51:39;2.88;;;1.30;;
43626;SDS011;29217;52.586;13.442;2023-08-31T10:54:30;3.30;;;1.60;;
43626;SDS011;29217;52.586;13.442;2023-08-31T11:07:41;6.18;;;1.90;;
43626;SDS011;29217;52.586;13.442;2023-08-31T11:10:18;2.83;;;1.83;;
43626;SDS011;29217;52.586;13.442;2023-08-31T11:12:51;6.50;;;1.98;;
43626;SDS011;29217;52.586;13.442;2023-08-31T11:15:18;2.33;;;1.40;;
43626;SDS011;29217;52.586;13.442;2023-08-31T11:17:46;4.13;;;1.65;;
43626;SDS011;29217;52.586;13.442;2023-08-31T11:20:13;3.30;;;1.80;;
43626;SDS011;29217;52.586;13.442;2023-08-31T11:22:44;5.05;;;1.90;;
43626;SDS011;29217;52.586;13.442;2023-08-31T11:25:19;4.63;;;1.75;;
43626;SDS011;29217;52.586;13.442;2023-08-31T11:30:21;4.93;;;2.17;;
43626;SDS011;29217;52.586;13.442;2023-08-31T11:32:47;2.20;;;1.67;;
43626;SDS011;29217;52.586;13.442;2023-08-31T11:35:14;2.22;;;1.58;;
43626;SDS011;29217;52.586;13.442;2023-08-31T11:37:42;1.92;;;1.27;;
43626;SDS011;29217;52.586;13.442;2023-08-31T11:40:09;3.42;;;1.52;;
43626;SDS011;29217;52.586;13.442;2023-08-31T11:42:35;3.78;;;1.40;;
43626;SDS011;29217;52.586;13.442;2023-08-31T11:45:02;3.25;;;1.40;;
43626;SDS011;29217;52.586;13.442;2023-08-31T11:47:31;3.67;;;1.55;;
43626;SDS011;29217;52.586;13.442;2023-08-31T11:49:56;2.28;;;1.40;;
43626;SDS011;29217;52.586;13.442;2023-08-31T11:52:23;2.67;;;1.50;;
43626;SDS011;29217;52.586;13.442;2023-08-31T11:54:49;3.42;;;1.75;;
43626;SDS011;29217;52.586;13.442;2023-08-31T11:57:18;4.05;;;1.70;;
43626;SDS011;29217;52.586;13.442;2023-08-31T11:59:50;3.85;;;1.42;;
43626;SDS011;29217;52.586;13.442;2023-08-31T12:02:15;3.88;;;1.30;;
43626;SDS011;29217;52.586;13.442;2023-08-31T12:04:44;2.90;;;1.50;;
43626;SDS011;29217;52.586;13.442;2023-08-31T12:07:10;5.80;;;1.65;;
43626;SDS011;29217;52.586;13.442;2023-08-31T12:09:40;2.05;;;1.60;;
43626;SDS011;29217;52.586;13.442;2023-08-31T12:12:07;2.85;;;1.60;;
43626;SDS011;29217;52.586;13.442;2023-08-31T12:14:33;4.38;;;1.65;;
43626;SDS011;29217;52.586;13.442;2023-08-31T12:17:03;5.43;;;2.08;;
43626;SDS011;29217;52.586;13.442;2023-08-31T12:19:31;3.70;;;1.40;;
43626;SDS011;29217;52.586;13.442;2023-08-31T12:21:57;2.80;;;1.75;;
43626;SDS011;29217;52.586;13.442;2023-08-31T12:24:22;2.63;;;1.40;;
43626;SDS011;29217;52.586;13.442;2023-08-31T12:26:49;3.25;;;1.63;;
43626;SDS011;29217;52.586;13.442;2023-08-31T12:29:15;2.58;;;1.40;;
43626;SDS011;29217;52.586;13.442;2023-08-31T12:31:41;3.80;;;1.35;;
43626;SDS011;29217;52.586;13.442;2023-08-31T12:34:08;4.93;;;1.38;;
43626;SDS011;29217;52.586;13.442;2023-08-31T12:36:34;3.95;;;1.65;;
43626;SDS011;29217;52.586;13.442;2023-08-31T12:39:06;4.45;;;1.63;;
43626;SDS011;29217;52.586;13.442;2023-08-31T12:41:35;3.13;;;1.38;;
43626;SDS011;29217;52.586;13.442;2023-08-31T12:44:02;4.30;;;1.30;;
43626;SDS011;29217;52.586;13.442;2023-08-31T12:46:28;2.03;;;1.58;;
43626;SDS011;29217;52.586;13.442;2023-08-31T12:48:54;4.13;;;1.67;;
43626;SDS011;29217;52.586;13.442;2023-08-31T12:51:20;4.05;;;1.45;;
43626;SDS011;29217;52.586;13.442;2023-08-31T12:53:45;5.13;;;1.90;;
43626;SDS011;29217;52.586;13.442;2023-08-31T12:56:11;3.38;;;2.03;;
43626;SDS011;29217;52.586;13.442;2023-08-31T12:58:38;5.03;;;1.50;;
43626;SDS011;29217;52.586;13.442;2023-08-31T13:01:04;4.13;;;1.80;;
43626;SDS011;29217;52.586;13.442;2023-08-31T13:03:30;2.67;;;1.50;;
43626;SDS011;29217;52.586;13.442;2023-08-31T13:05:55;3.97;;;1.80;;
43626;SDS011;29217;52.586;13.442;2023-08-31T13:08:21;2.92;;;1.60;;
43626;SDS011;29217;52.586;13.442;2023-08-31T13:10:53;7.38;;;1.58;;
43626;SDS011;29217;52.586;13.442;2023-08-31T13:13:19;2.25;;;1.40;;
43626;SDS011;29217;52.586;13.442;2023-08-31T13:15:46;4.00;;;1.60;;
43626;SDS011;29217;52.586;13.442;2023-08-31T13:18:12;5.90;;;1.42;;
43626;SDS011;29217;52.586;13.442;2023-08-31T13:20:38;2.50;;;1.48;;
43626;SDS011;29217;52.586;13.442;2023-08-31T13:23:04;3.78;;;1.30;;
43626;SDS011;29217;52.586;13.442;2023-08-31T13:25:30;1.88;;;1.20;;
43626;SDS011;29217;52.586;13.442;2023-08-31T13:27:56;3.35;;;1.30;;
43626;SDS011;29217;52.586;13.442;2023-08-31T13:30:22;2.00;;;1.35;;
43626;SDS011;29217;52.586;13.442;2023-08-31T13:32:48;3.92;;;0.85;;
43626;SDS011;29217;52.586;13.442;2023-08-31T13:35:13;2.15;;;1.00;;
43626;SDS011;29217;52.586;13.442;2023-08-31T13:37:39;1.60;;;1.10;;
43626;SDS011;29217;52.586;13.442;2023-08-31T13:40:05;2.15;;;1.00;;
43626;SDS011;29217;52.586;13.442;2023-08-31T13:42:35;1.02;;;0.85;;
43626;SDS011;29217;52.586;13.442;2023-08-31T13:45:03;1.80;;;0.90;;
43626;SDS011;29217;52.586;13.442;2023-08-31T13:47:32;5.00;;;0.90;;
43626;SDS011;29217;52.586;13.442;2023-08-31T13:49:57;2.42;;;1.10;;
43626;SDS011;29217;52.586;13.442;2023-08-31T13:52:23;2.28;;;1.00;;
43626;SDS011;29217;52.586;13.442;2023-08-31T13:54:49;2.60;;;0.95;;
43626;SDS011;29217;52.586;13.442;2023-08-31T13:57:15;1.20;;;1.10;;
43626;SDS011;29217;52.586;13.442;2023-08-31T13:59:42;2.45;;;1.20;;
43626;SDS011;29217;52.586;13.442;2023-08-31T14:02:08;1.17;;;0.82;;
43626;SDS011;29217;52.586;13.442;2023-08-31T14:04:34;1.77;;;1.02;;
43626;SDS011;29217;52.586;13.442;2023-08-31T14:07:00;3.03;;;1.10;;
43626;SDS011;29217;52.586;13.442;2023-08-31T14:09:26;2.20;;;1.20;;
43626;SDS011;29217;52.586;13.442;2023-08-31T14:11:52;3.25;;;1.10;;
43626;SDS011;29217;52.586;13.442;2023-08-31T14:14:20;2.17;;;1.10;;
43626;SDS011;29217;52.586;13.442;2023-08-31T14:16:46;2.05;;;0.90;;
43626;SDS011;29217;52.586;13.442;2023-08-31T14:19:13;1.63;;;1.00;;
43626;SDS011;29217;52.586;13.442;2023-08-31T14:21:38;2.83;;;1.30;;
43626;SDS011;29217;52.586;13.442;2023-08-31T14:24:04;1.63;;;1.10;;
43626;SDS011;29217;52.586;13.442;2023-08-31T14:26:30;2.20;;;1.35;;
43626;SDS011;29217;52.586;13.442;2023-08-31T14:28:55;6.55;;;1.30;;
43626;SDS011;29217;52.586;13.442;2023-08-31T14:31:21;2.80;;;1.10;;
43626;SDS011;29217;52.586;13.442;2023-08-31T14:33:47;3.08;;;0.98;;
43626;SDS011;29217;52.586;13.442;2023-08-31T14:36:13;3.47;;;1.17;;
43626;SDS011;29217;52.586;13.442;2023-08-31T14:38:40;1.52;;;0.90;;
43626;SDS011;29217;52.586;13.442;2023-08-31T14:41:05;1.58;;;0.70;;
43626;SDS011;29217;52.586;13.442;2023-08-31T14:43:31;2.17;;;1.00;;
43626;SDS011;29217;52.586;13.442;2023-08-31T14:45:57;5.93;;;1.00;;
43626;SDS011;29217;52.586;13.442;2023-08-31T14:48:25;1.60;;;0.93;;
43626;SDS011;29217;52.586;13.442;2023-08-31T14:50:54;2.17;;;1.25;;
43626;SDS011;29217;52.586;13.442;2023-08-31T14:53:19;2.75;;;1.10;;
43626;SDS011;29217;52.586;13.442;2023-08-31T14:55:50;2.40;;;0.95;;